createdAt,value
2019-01-29T00:00:36.535Z,100.00
2019-01-29T00:10:54.792Z,100.00
2019-01-29T00:20:59.050Z,100.00
2019-01-29T00:30:51.501Z,100.00
2019-01-29T00:40:53.437Z,100.00
2019-01-29T00:50:54.627Z,100.00
2019-01-29T01:01:01.454Z,100.00
2019-01-29T01:11:09.693Z,100.00
2019-01-29T01:21:34.567Z,100.00
2019-01-29T01:31:27.830Z,100.00
2019-01-29T01:41:29.749Z,100.00
2019-01-29T01:51:30.533Z,100.00
2019-01-29T02:01:43.936Z,100.00
2019-01-29T02:11:38.173Z,100.00
2019-01-29T02:21:43.849Z,100.00
2019-01-29T02:31:44.543Z,100.00
2019-01-29T02:41:45.492Z,100.00
2019-01-29T02:51:46.242Z,100.00
2019-01-29T03:02:53.489Z,100.00
2019-01-29T03:11:58.468Z,100.00
2019-01-29T03:21:59.277Z,100.00
2019-01-29T03:32:01.063Z,100.00
2019-01-29T03:42:03.135Z,100.00
2019-01-29T03:53:45.334Z,100.00
2019-01-29T04:03:26.873Z,100.00
2019-01-29T04:12:16.277Z,100.00
2019-01-29T04:22:18.063Z,100.00
2019-01-29T04:32:18.807Z,100.00
2019-01-29T04:42:57.808Z,100.00
2019-01-29T04:52:45.461Z,100.00
2019-01-29T05:13:55.574Z,100.00
2019-01-29T05:24:06.638Z,100.00
2019-01-29T05:34:08.145Z,100.00
2019-01-29T05:44:09.764Z,100.00
2019-01-29T05:54:20.327Z,100.00
2019-01-29T06:04:13.467Z,100.00
2019-01-29T06:14:14.130Z,100.00
2019-01-29T06:24:26.889Z,100.00
2019-01-29T06:34:23.438Z,100.00
2019-01-29T06:44:34.675Z,100.00
2019-01-29T06:54:42.059Z,100.00
2019-01-29T07:04:43.175Z,100.00
2019-01-29T07:14:49.942Z,100.00
2019-01-29T07:24:55.705Z,100.00
2019-01-29T07:35:01.999Z,100.00
2019-01-29T07:46:00.437Z,100.00
2019-01-29T07:55:26.586Z,100.00
2019-01-29T08:25:57.789Z,100.00
2019-01-29T08:35:59.722Z,100.00
2019-01-29T08:46:00.719Z,100.00
2019-01-29T08:56:01.846Z,100.00
2019-01-29T09:06:02.518Z,100.00
2019-01-29T09:16:03.328Z,100.00
2019-01-29T09:26:06.147Z,100.00
2019-01-29T09:36:06.960Z,100.00
2019-01-29T09:46:08.770Z,100.00
2019-01-29T09:56:09.639Z,100.00
2019-01-29T10:06:11.389Z,100.00
2019-01-29T10:16:12.115Z,100.00
2019-01-29T10:26:14.049Z,100.00
2019-01-29T10:36:15.853Z,100.00
2019-01-29T10:46:16.757Z,100.00
2019-01-29T10:56:17.517Z,100.00
2019-01-29T11:06:24.296Z,100.00
2019-01-29T11:16:25.076Z,100.00
2019-01-29T11:26:25.963Z,100.00
2019-01-29T11:36:29.938Z,100.00
2019-01-29T11:46:59.449Z,100.00
2019-01-29T12:07:35.651Z,100.00
2019-01-29T12:17:37.505Z,100.00
2019-01-29T12:27:38.415Z,100.00
2019-01-29T12:37:39.317Z,100.00
2019-01-29T12:47:41.373Z,100.00
2019-01-29T12:57:45.030Z,100.00
2019-01-29T13:07:47.506Z,100.00
2019-01-29T13:17:49.254Z,100.00
2019-01-29T13:27:51.378Z,100.00
2019-01-29T13:37:52.492Z,98.89
2019-01-29T13:47:55.520Z,90.23
2019-01-29T13:57:56.668Z,86.35
2019-01-29T14:07:57.625Z,85.86
2019-01-29T14:17:59.682Z,85.97
2019-01-29T14:28:00.660Z,89.20
2019-01-29T14:38:08.062Z,85.74
2019-01-29T14:48:08.904Z,86.36
2019-01-29T14:58:09.717Z,87.63
2019-01-29T15:08:10.487Z,87.18
2019-01-29T15:18:11.383Z,87.77
2019-01-29T15:28:14.194Z,91.79
2019-01-29T15:38:15.023Z,92.74
2019-01-29T15:48:15.702Z,94.11
2019-01-29T15:58:16.632Z,91.28
2019-01-29T16:08:17.338Z,91.16
2019-01-29T16:18:17.983Z,91.32
2019-01-29T16:28:18.684Z,93.69
2019-01-29T16:38:19.424Z,94.90
2019-01-29T16:48:20.232Z,93.89
2019-01-29T16:58:21.083Z,93.16
2019-01-29T17:08:21.756Z,95.84
2019-01-29T17:18:22.516Z,98.36
2019-01-29T17:28:23.203Z,100.00
2019-01-29T17:38:25.384Z,100.00
2019-01-29T17:48:26.093Z,100.00
2019-01-29T17:58:26.796Z,100.00
2019-01-29T18:08:28.306Z,100.00
2019-01-29T18:18:30.246Z,100.00
2019-01-29T18:28:32.027Z,100.00
2019-01-29T18:38:32.828Z,100.00
2019-01-29T18:48:33.539Z,100.00
2019-01-29T18:58:34.350Z,100.00
2019-01-29T19:08:35.057Z,100.00
2019-01-29T19:18:35.834Z,100.00
2019-01-29T19:28:36.607Z,100.00
2019-01-29T19:38:41.441Z,100.00
2019-01-29T19:48:42.260Z,100.00
2019-01-29T19:58:43.071Z,100.00
2019-01-29T20:08:43.829Z,100.00
2019-01-29T20:18:44.589Z,100.00
2019-01-29T20:28:46.639Z,100.00
2019-01-29T20:38:47.394Z,100.00
2019-01-29T20:48:48.259Z,100.00
2019-01-29T20:58:52.689Z,100.00
2019-01-29T21:08:52.885Z,100.00
2019-01-29T21:18:54.965Z,100.00
2019-01-29T21:29:02.704Z,100.00
2019-01-29T21:38:59.714Z,100.00
2019-01-29T21:49:06.667Z,100.00
2019-01-29T21:59:12.909Z,100.00
2019-01-29T22:09:07.534Z,100.00
2019-01-29T22:19:09.501Z,100.00
2019-01-29T22:29:11.462Z,100.00
2019-01-29T22:39:12.391Z,100.00
2019-01-29T22:49:13.481Z,100.00
2019-01-29T22:59:14.703Z,100.00
2019-01-29T23:09:15.593Z,100.00
2019-01-29T23:19:17.368Z,100.00
2019-01-29T23:29:18.240Z,100.00
2019-01-29T23:39:20.056Z,100.00
2019-01-29T23:49:21.955Z,100.00
2019-01-29T23:59:23.074Z,100.00
